sensor_id;sensor_type;location;lat;lon;timestamp;pressure;altitude;pressure_sealevel;temperature;humidity
64025;BME280;50266;57.446;26.936;2023-08-01T00:00:14;98242.81;;;13.93;100.0
64025;BME280;50266;57.446;26.936;2023-08-01T00:01:14;98242.1;;;13.97;100.0
64025;BME280;50266;57.446;26.936;2023-08-01T00:02:14;98240.23;;;14.02;100.0
64025;BME280;50266;57.446;26.936;2023-08-01T00:03:14;98243.94;;;14.06;100.0
64025;BME280;50266;57.446;26.936;2023-08-01T00:04:14;98240.73;;;14.03;100.0
64025;BME280;50266;57.446;26.936;2023-08-01T00:05:14;98243.17;;;13.96;100.0
64025;BME280;50266;57.446;26.936;2023-08-01T00:06:14;98239.92;;;13.96;100.0
64025;BME280;50266;57.446;26.936;2023-08-01T00:07:14;98238.72;;;13.93;100.0
64025;BME280;50266;57.446;26.936;2023-08-01T00:08:14;98241.66;;;13.91;100.0
64025;BME280;50266;57.446;26.936;2023-08-01T00:09:14;98242.39;;;13.93;100.0
64025;BME280;50266;57.446;26.936;2023-08-01T00:10:14;98239.5;;;13.92;100.0
64025;BME280;50266;57.446;26.936;2023-08-01T00:11:14;98243.3;;;13.92;100.0
64025;BME280;50266;57.446;26.936;2023-08-01T00:12:14;98241.72;;;13.89;100.0
64025;BME280;50266;57.446;26.936;2023-08-01T00:13:14;98245.17;;;13.84;100.0
64025;BME280;50266;57.446;26.936;2023-08-01T00:14:14;98243.28;;;13.86;100.0
64025;BME280;50266;57.446;26.936;2023-08-01T00:15:14;98242.81;;;13.82;100.0
64025;BME280;50266;57.446;26.936;2023-08-01T00:16:14;98247.59;;;13.83;100.0
64025;BME280;50266;57.446;26.936;2023-08-01T00:17:14;98242.56;;;13.82;100.0
64025;BME280;50266;57.446;26.936;2023-08-01T00:18:14;98241.36;;;13.79;100.0
64025;BME280;50266;57.446;26.936;2023-08-01T00:19:14;98246.06;;;13.81;100.0
64025;BME280;50266;57.446;26.936;2023-08-01T00:20:14;98245.06;;;13.81;100.0
64025;BME280;50266;57.446;26.936;2023-08-01T00:21:14;98244.62;;;13.79;100.0
64025;BME280;50266;57.446;26.936;2023-08-01T00:22:14;98245.56;;;13.82;100.0
64025;BME280;50266;57.446;26.936;2023-08-01T00:23:14;98244.67;;;13.84;100.0
64025;BME280;50266;57.446;26.936;2023-08-01T00:24:14;98242.12;;;13.87;100.0
64025;BME280;50266;57.446;26.936;2023-08-01T00:25:14;98240.69;;;13.78;100.0
64025;BME280;50266;57.446;26.936;2023-08-01T00:26:14;98237.64;;;13.83;100.0
64025;BME280;50266;57.446;26.936;2023-08-01T00:27:14;98236.39;;;13.82;100.0
64025;BME280;50266;57.446;26.936;2023-08-01T00:28:14;98236.37;;;13.8;100.0
64025;BME280;50266;57.446;26.936;2023-08-01T00:29:14;98238.62;;;13.8;100.0
64025;BME280;50266;57.446;26.936;2023-08-01T00:30:14;98237.2;;;13.8;100.0
64025;BME280;50266;57.446;26.936;2023-08-01T00:31:14;98232.63;;;13.82;100.0
64025;BME280;50266;57.446;26.936;2023-08-01T00:32:14;98233.17;;;13.85;100.0
64025;BME280;50266;57.446;26.936;2023-08-01T00:33:14;98232.36;;;13.8;100.0
64025;BME280;50266;57.446;26.936;2023-08-01T00:34:14;98234.0;;;13.85;100.0
64025;BME280;50266;57.446;26.936;2023-08-01T00:35:14;98230.83;;;13.85;100.0
64025;BME280;50266;57.446;26.936;2023-08-01T00:36:14;98232.75;;;13.85;100.0
64025;BME280;50266;57.446;26.936;2023-08-01T00:37:14;98234.51;;;13.78;100.0
64025;BME280;50266;57.446;26.936;2023-08-01T00:38:14;98235.66;;;13.76;100.0
64025;BME280;50266;57.446;26.936;2023-08-01T00:39:14;98233.88;;;13.73;100.0
64025;BME280;50266;57.446;26.936;2023-08-01T00:40:14;98239.06;;;13.74;100.0
64025;BME280;50266;57.446;26.936;2023-08-01T00:41:14;98237.25;;;13.76;100.0
64025;BME280;50266;57.446;26.936;2023-08-01T00:42:14;98242.97;;;13.73;100.0
64025;BME280;50266;57.446;26.936;2023-08-01T00:43:14;98236.56;;;13.74;100.0
64025;BME280;50266;57.446;26.936;2023-08-01T00:44:14;98235.0;;;13.77;100.0
64025;BME280;50266;57.446;26.936;2023-08-01T00:45:14;98235.57;;;13.75;100.0
64025;BME280;50266;57.446;26.936;2023-08-01T00:46:14;98235.94;;;13.79;100.0
64025;BME280;50266;57.446;26.936;2023-08-01T00:47:14;98239.31;;;13.83;100.0
64025;BME280;50266;57.446;26.936;2023-08-01T00:48:14;98234.17;;;13.78;100.0
64025;BME280;50266;57.446;26.936;2023-08-01T00:49:14;98236.12;;;13.8;100.0
64025;BME280;50266;57.446;26.936;2023-08-01T00:50:14;98235.22;;;13.82;100.0
64025;BME280;50266;57.446;26.936;2023-08-01T00:51:14;98234.89;;;13.75;100.0
64025;BME280;50266;57.446;26.936;2023-08-01T00:52:14;98231.7;;;13.72;100.0
64025;BME280;50266;57.446;26.936;2023-08-01T00:53:14;98233.86;;;13.8;100.0
64025;BME280;50266;57.446;26.936;2023-08-01T00:54:14;98232.06;;;13.75;100.0
64025;BME280;50266;57.446;26.936;2023-08-01T00:55:14;98229.38;;;13.73;100.0
64025;BME280;50266;57.446;26.936;2023-08-01T00:56:14;98232.04;;;13.73;100.0
64025;BME280;50266;57.446;26.936;2023-08-01T00:57:14;98227.53;;;13.73;100.0
64025;BME280;50266;57.446;26.936;2023-08-01T00:58:14;98230.7;;;13.73;100.0
64025;BME280;50266;57.446;26.936;2023-08-01T00:59:15;98227.91;;;13.67;100.0
64025;BME280;50266;57.446;26.936;2023-08-01T01:00:15;98226.02;;;13.72;100.0
64025;BME280;50266;57.446;26.936;2023-08-01T01:01:14;98223.14;;;13.65;100.0
64025;BME280;50266;57.446;26.936;2023-08-01T01:02:15;98223.92;;;13.68;100.0
64025;BME280;50266;57.446;26.936;2023-08-01T01:03:15;98226.99;;;13.66;100.0
64025;BME280;50266;57.446;26.936;2023-08-01T01:04:15;98229.95;;;13.7;100.0
64025;BME280;50266;57.446;26.936;2023-08-01T01:05:15;98231.11;;;13.72;100.0
64025;BME280;50266;57.446;26.936;2023-08-01T01:06:23;98234.8;;;13.7;100.0
64025;BME280;50266;57.446;26.936;2023-08-01T01:07:16;98231.84;;;13.67;100.0
64025;BME280;50266;57.446;26.936;2023-08-01T01:08:16;98231.45;;;13.7;100.0
64025;BME280;50266;57.446;26.936;2023-08-01T01:09:19;98234.05;;;13.7;100.0
64025;BME280;50266;57.446;26.936;2023-08-01T01:10:21;98233.05;;;13.73;100.0
64025;BME280;50266;57.446;26.936;2023-08-01T01:11:18;98231.36;;;13.69;100.0
64025;BME280;50266;57.446;26.936;2023-08-01T01:12:18;98230.96;;;13.71;100.0
64025;BME280;50266;57.446;26.936;2023-08-01T01:13:18;98231.22;;;13.71;100.0
64025;BME280;50266;57.446;26.936;2023-08-01T01:14:18;98227.45;;;13.74;100.0
64025;BME280;50266;57.446;26.936;2023-08-01T01:15:18;98226.78;;;13.7;100.0
64025;BME280;50266;57.446;26.936;2023-08-01T01:16:18;98223.33;;;13.67;100.0
64025;BME280;50266;57.446;26.936;2023-08-01T01:17:18;98230.88;;;13.7;100.0
64025;BME280;50266;57.446;26.936;2023-08-01T01:18:18;98225.43;;;13.68;100.0
64025;BME280;50266;57.446;26.936;2023-08-01T01:19:18;98224.05;;;13.71;100.0
64025;BME280;50266;57.446;26.936;2023-08-01T01:20:23;98222.55;;;13.71;100.0
64025;BME280;50266;57.446;26.936;2023-08-01T01:21:19;98220.55;;;13.65;100.0
64025;BME280;50266;57.446;26.936;2023-08-01T01:22:20;98221.38;;;13.64;100.0
64025;BME280;50266;57.446;26.936;2023-08-01T01:23:20;98218.98;;;13.66;100.0
64025;BME280;50266;57.446;26.936;2023-08-01T01:24:20;98219.36;;;13.7;100.0
64025;BME280;50266;57.446;26.936;2023-08-01T01:25:20;98219.5;;;13.67;100.0
64025;BME280;50266;57.446;26.936;2023-08-01T01:26:20;98216.84;;;13.72;100.0
64025;BME280;50266;57.446;26.936;2023-08-01T01:27:20;98213.52;;;13.71;100.0
64025;BME280;50266;57.446;26.936;2023-08-01T01:28:20;98214.48;;;13.66;100.0
64025;BME280;50266;57.446;26.936;2023-08-01T01:29:20;98212.31;;;13.67;100.0
64025;BME280;50266;57.446;26.936;2023-08-01T01:30:20;98211.85;;;13.7;100.0
64025;BME280;50266;57.446;26.936;2023-08-01T01:31:20;98212.48;;;13.67;100.0
64025;BME280;50266;57.446;26.936;2023-08-01T01:32:20;98213.27;;;13.63;100.0
64025;BME280;50266;57.446;26.936;2023-08-01T01:33:20;98210.48;;;13.67;100.0
64025;BME280;50266;57.446;26.936;2023-08-01T01:34:20;98211.8;;;13.65;100.0
64025;BME280;50266;57.446;26.936;2023-08-01T01:35:20;98210.89;;;13.67;100.0
64025;BME280;50266;57.446;26.936;2023-08-01T01:36:20;98213.8;;;13.58;100.0
64025;BME280;50266;57.446;26.936;2023-08-01T01:37:20;98216.62;;;13.64;100.0
64025;BME280;50266;57.446;26.936;2023-08-01T01:38:20;98212.98;;;13.66;100.0
64025;BME280;50266;57.446;26.936;2023-08-01T01:39:20;98209.62;;;13.65;100.0
64025;BME280;50266;57.446;26.936;2023-08-01T01:40:20;98209.48;;;13.59;100.0
64025;BME280;50266;57.446;26.936;2023-08-01T01:41:20;98207.98;;;13.59;100.0
64025;BME280;50266;57.446;26.936;2023-08-01T01:42:20;98214.77;;;13.54;100.0
64025;BME280;50266;57.446;26.936;2023-08-01T01:43:20;98210.13;;;13.58;100.0
64025;BME280;50266;57.446;26.936;2023-08-01T01:44:20;98213.98;;;13.59;100.0
64025;BME280;50266;57.446;26.936;2023-08-01T01:45:25;98214.37;;;13.64;100.0
64025;BME280;50266;57.446;26.936;2023-08-01T01:46:22;98217.33;;;13.67;100.0
64025;BME280;50266;57.446;26.936;2023-08-01T01:47:22;98214.94;;;13.62;100.0
64025;BME280;50266;57.446;26.936;2023-08-01T01:48:22;98209.23;;;13.52;100.0
64025;BME280;50266;57.446;26.936;2023-08-01T01:49:22;98210.78;;;13.56;100.0
64025;BME280;50266;57.446;26.936;2023-08-01T01:50:22;98205.98;;;13.6;100.0
64025;BME280;50266;57.446;26.936;2023-08-01T01:51:24;98208.8;;;13.58;100.0
64025;BME280;50266;57.446;26.936;2023-08-01T01:52:23;98212.64;;;13.58;100.0
64025;BME280;50266;57.446;26.936;2023-08-01T01:53:23;98211.8;;;13.57;100.0
64025;BME280;50266;57.446;26.936;2023-08-01T01:54:23;98209.73;;;13.59;100.0
64025;BME280;50266;57.446;26.936;2023-08-01T01:55:23;98206.85;;;13.63;100.0
64025;BME280;50266;57.446;26.936;2023-08-01T01:56:23;98200.42;;;13.63;100.0
64025;BME280;50266;57.446;26.936;2023-08-01T01:57:23;98206.45;;;13.65;100.0
64025;BME280;50266;57.446;26.936;2023-08-01T01:58:23;98203.08;;;13.61;100.0
64025;BME280;50266;57.446;26.936;2023-08-01T01:59:23;98201.46;;;13.58;100.0
64025;BME280;50266;57.446;26.936;2023-08-01T02:00:23;98196.54;;;13.58;100.0
64025;BME280;50266;57.446;26.936;2023-08-01T02:01:23;98195.06;;;13.61;100.0
64025;BME280;50266;57.446;26.936;2023-08-01T02:02:23;98194.77;;;13.56;100.0
64025;BME280;50266;57.446;26.936;2023-08-01T02:03:23;98195.6;;;13.56;100.0
64025;BME280;50266;57.446;26.936;2023-08-01T02:04:23;98194.92;;;13.55;100.0
64025;BME280;50266;57.446;26.936;2023-08-01T02:05:23;98185.25;;;13.55;100.0
64025;BME280;50266;57.446;26.936;2023-08-01T02:06:23;98287.66;;;13.59;100.0
64025;BME280;50266;57.446;26.936;2023-08-01T02:07:23;98276.69;;;13.64;100.0
64025;BME280;50266;57.446;26.936;2023-08-01T02:08:23;98276.66;;;13.6;100.0
64025;BME280;50266;57.446;26.936;2023-08-01T02:09:23;98270.27;;;13.64;100.0
64025;BME280;50266;57.446;26.936;2023-08-01T02:10:23;98266.95;;;13.58;100.0
64025;BME280;50266;57.446;26.936;2023-08-01T02:11:23;98262.79;;;13.59;100.0
64025;BME280;50266;57.446;26.936;2023-08-01T02:12:23;98263.83;;;13.62;100.0
64025;BME280;50266;57.446;26.936;2023-08-01T02:13:26;98256.16;;;13.63;100.0
64025;BME280;50266;57.446;26.936;2023-08-01T02:14:23;98250.41;;;13.56;100.0
64025;BME280;50266;57.446;26.936;2023-08-01T02:15:23;98247.2;;;13.53;100.0
64025;BME280;50266;57.446;26.936;2023-08-01T02:16:23;98246.09;;;13.58;100.0
64025;BME280;50266;57.446;26.936;2023-08-01T02:17:23;98243.84;;;13.58;100.0
64025;BME280;50266;57.446;26.936;2023-08-01T02:18:23;98244.46;;;13.61;100.0
64025;BME280;50266;57.446;26.936;2023-08-01T02:19:23;98245.62;;;13.6;100.0
64025;BME280;50266;57.446;26.936;2023-08-01T02:20:23;98246.48;;;13.56;100.0
64025;BME280;50266;57.446;26.936;2023-08-01T02:21:23;98245.19;;;13.59;100.0
64025;BME280;50266;57.446;26.936;2023-08-01T02:22:24;98247.45;;;13.6;100.0
64025;BME280;50266;57.446;26.936;2023-08-01T02:23:24;98245.06;;;13.63;100.0
64025;BME280;50266;57.446;26.936;2023-08-01T02:24:24;98240.37;;;13.61;100.0
64025;BME280;50266;57.446;26.936;2023-08-01T02:25:24;98237.97;;;13.63;100.0
64025;BME280;50266;57.446;26.936;2023-08-01T02:26:24;98238.19;;;13.6;100.0
64025;BME280;50266;57.446;26.936;2023-08-01T02:27:24;98233.53;;;13.54;100.0
64025;BME280;50266;57.446;26.936;2023-08-01T02:28:24;98234.47;;;13.56;100.0
64025;BME280;50266;57.446;26.936;2023-08-01T02:29:24;98232.55;;;13.56;100.0
64025;BME280;50266;57.446;26.936;2023-08-01T02:30:24;98230.55;;;13.56;100.0
64025;BME280;50266;57.446;26.936;2023-08-01T02:31:24;98228.77;;;13.53;100.0
64025;BME280;50266;57.446;26.936;2023-08-01T02:32:24;98228.58;;;13.58;100.0
64025;BME280;50266;57.446;26.936;2023-08-01T02:33:24;98226.89;;;13.57;100.0
64025;BME280;50266;57.446;26.936;2023-08-01T02:34:24;98225.14;;;13.56;100.0
64025;BME280;50266;57.446;26.936;2023-08-01T02:35:24;98224.17;;;13.59;100.0
64025;BME280;50266;57.446;26.936;2023-08-01T02:36:24;98224.23;;;13.57;100.0
64025;BME280;50266;57.446;26.936;2023-08-01T02:37:24;98222.53;;;13.55;100.0
64025;BME280;50266;57.446;26.936;2023-08-01T02:38:24;98221.56;;;13.58;100.0
64025;BME280;50266;57.446;26.936;2023-08-01T02:39:24;98222.02;;;13.62;100.0
64025;BME280;50266;57.446;26.936;2023-08-01T02:40:24;98217.92;;;13.61;100.0
64025;BME280;50266;57.446;26.936;2023-08-01T02:41:24;98218.67;;;13.61;100.0
64025;BME280;50266;57.446;26.936;2023-08-01T02:42:24;98217.66;;;13.59;100.0
64025;BME280;50266;57.446;26.936;2023-08-01T02:43:24;98215.49;;;13.59;100.0
64025;BME280;50266;57.446;26.936;2023-08-01T02:44:24;98217.12;;;13.63;100.0
64025;BME280;50266;57.446;26.936;2023-08-01T02:45:24;98216.09;;;13.62;100.0
64025;BME280;50266;57.446;26.936;2023-08-01T02:46:24;98217.0;;;13.61;100.0
64025;BME280;50266;57.446;26.936;2023-08-01T02:47:29;98213.91;;;13.6;100.0
64025;BME280;50266;57.446;26.936;2023-08-01T02:48:26;98216.0;;;13.6;100.0
64025;BME280;50266;57.446;26.936;2023-08-01T02:49:26;98213.69;;;13.62;100.0
64025;BME280;50266;57.446;26.936;2023-08-01T02:50:26;98212.32;;;13.59;100.0
64025;BME280;50266;57.446;26.936;2023-08-01T02:51:26;98212.12;;;13.57;100.0
64025;BME280;50266;57.446;26.936;2023-08-01T02:52:26;98212.08;;;13.6;100.0
64025;BME280;50266;57.446;26.936;2023-08-01T02:53:26;98213.42;;;13.61;100.0
64025;BME280;50266;57.446;26.936;2023-08-01T02:54:26;98205.27;;;13.62;100.0
64025;BME280;50266;57.446;26.936;2023-08-01T02:55:26;98209.76;;;13.62;100.0
64025;BME280;50266;57.446;26.936;2023-08-01T02:56:26;98212.62;;;13.64;100.0
64025;BME280;50266;57.446;26.936;2023-08-01T02:57:26;98213.08;;;13.6;100.0
64025;BME280;50266;57.446;26.936;2023-08-01T02:58:26;98214.95;;;13.56;100.0
64025;BME280;50266;57.446;26.936;2023-08-01T02:59:26;98210.7;;;13.64;100.0
64025;BME280;50266;57.446;26.936;2023-08-01T03:00:26;98211.93;;;13.62;100.0
64025;BME280;50266;57.446;26.936;2023-08-01T03:01:27;98210.62;;;13.57;100.0
64025;BME280;50266;57.446;26.936;2023-08-01T03:02:27;98209.81;;;13.59;100.0
64025;BME280;50266;57.446;26.936;2023-08-01T03:03:27;98212.52;;;13.63;100.0
64025;BME280;50266;57.446;26.936;2023-08-01T03:04:27;98212.61;;;13.63;100.0
64025;BME280;50266;57.446;26.936;2023-08-01T03:05:31;98209.59;;;13.62;100.0
64025;BME280;50266;57.446;26.936;2023-08-01T03:06:31;98207.62;;;13.58;100.0
64025;BME280;50266;57.446;26.936;2023-08-01T03:07:31;98207.18;;;13.63;100.0
64025;BME280;50266;57.446;26.936;2023-08-01T03:08:31;98207.35;;;13.63;100.0
64025;BME280;50266;57.446;26.936;2023-08-01T03:09:32;98206.09;;;13.62;100.0
64025;BME280;50266;57.446;26.936;2023-08-01T03:10:31;98206.16;;;13.68;100.0
64025;BME280;50266;57.446;26.936;2023-08-01T03:11:33;98204.45;;;13.65;100.0
64025;BME280;50266;57.446;26.936;2023-08-01T03:12:33;98201.41;;;13.61;100.0
64025;BME280;50266;57.446;26.936;2023-08-01T03:13:33;98199.23;;;13.61;100.0
64025;BME280;50266;57.446;26.936;2023-08-01T03:14:33;98198.28;;;13.57;100.0
64025;BME280;50266;57.446;26.936;2023-08-01T03:15:33;98199.21;;;13.59;100.0
64025;BME280;50266;57.446;26.936;2023-08-01T03:16:33;98196.12;;;13.58;100.0
64025;BME280;50266;57.446;26.936;2023-08-01T03:17:33;98190.62;;;13.58;100.0
64025;BME280;50266;57.446;26.936;2023-08-01T03:18:33;98188.2;;;13.58;100.0
64025;BME280;50266;57.446;26.936;2023-08-01T03:19:33;98197.59;;;13.63;100.0
64025;BME280;50266;57.446;26.936;2023-08-01T03:20:33;98187.71;;;13.68;100.0
64025;BME280;50266;57.446;26.936;2023-08-01T03:21:33;98186.69;;;13.65;100.0
64025;BME280;50266;57.446;26.936;2023-08-01T03:22:33;98189.2;;;13.66;100.0
64025;BME280;50266;57.446;26.936;2023-08-01T03:23:33;98189.2;;;13.66;100.0
64025;BME280;50266;57.446;26.936;2023-08-01T03:24:33;98192.3;;;13.67;100.0
64025;BME280;50266;57.446;26.936;2023-08-01T03:25:33;98192.87;;;13.66;100.0
64025;BME280;50266;57.446;26.936;2023-08-01T03:26:33;98195.58;;;13.73;100.0
64025;BME280;50266;57.446;26.936;2023-08-01T03:27:33;98194.38;;;13.79;100.0
64025;BME280;50266;57.446;26.936;2023-08-01T03:28:33;98196.45;;;13.77;100.0
64025;BME280;50266;57.446;26.936;2023-08-01T03:29:33;98193.91;;;13.71;100.0
64025;BME280;50266;57.446;26.936;2023-08-01T03:30:33;98188.83;;;13.7;100.0
64025;BME280;50266;57.446;26.936;2023-08-01T03:31:33;98194.41;;;13.74;100.0
64025;BME280;50266;57.446;26.936;2023-08-01T03:32:33;98187.3;;;13.68;100.0
64025;BME280;50266;57.446;26.936;2023-08-01T03:33:33;98185.62;;;13.67;100.0
64025;BME280;50266;57.446;26.936;2023-08-01T03:34:33;98187.27;;;13.66;100.0
64025;BME280;50266;57.446;26.936;2023-08-01T03:35:33;98187.89;;;13.69;100.0
64025;BME280;50266;57.446;26.936;2023-08-01T03:36:33;98186.14;;;13.69;100.0
64025;BME280;50266;57.446;26.936;2023-08-01T03:37:33;98186.05;;;13.72;100.0
64025;BME280;50266;57.446;26.936;2023-08-01T03:38:33;98186.63;;;13.72;100.0
64025;BME280;50266;57.446;26.936;2023-08-01T03:39:33;98188.99;;;13.74;100.0
64025;BME280;50266;57.446;26.936;2023-08-01T03:40:33;98189.8;;;13.8;100.0
64025;BME280;50266;57.446;26.936;2023-08-01T03:41:33;98188.41;;;13.82;100.0
64025;BME280;50266;57.446;26.936;2023-08-01T03:42:33;98185.19;;;13.86;100.0
64025;BME280;50266;57.446;26.936;2023-08-01T03:43:33;98187.32;;;13.91;100.0
64025;BME280;50266;57.446;26.936;2023-08-01T03:44:33;98179.06;;;13.96;100.0
64025;BME280;50266;57.446;26.936;2023-08-01T03:45:33;98181.89;;;13.94;100.0
64025;BME280;50266;57.446;26.936;2023-08-01T03:46:33;98179.09;;;13.99;100.0
64025;BME280;50266;57.446;26.936;2023-08-01T03:47:33;98178.02;;;13.99;100.0
64025;BME280;50266;57.446;26.936;2023-08-01T03:48:33;98178.22;;;14.04;100.0
64025;BME280;50266;57.446;26.936;2023-08-01T03:49:33;98173.95;;;14.13;100.0
64025;BME280;50266;57.446;26.936;2023-08-01T03:50:33;98170.88;;;14.2;100.0
64025;BME280;50266;57.446;26.936;2023-08-01T03:51:33;98170.88;;;14.3;100.0
64025;BME280;50266;57.446;26.936;2023-08-01T03:52:33;98172.94;;;14.16;100.0
64025;BME280;50266;57.446;26.936;2023-08-01T03:53:33;98169.14;;;14.22;100.0
64025;BME280;50266;57.446;26.936;2023-08-01T03:54:33;98167.52;;;14.28;100.0
64025;BME280;50266;57.446;26.936;2023-08-01T03:55:33;98165.52;;;14.17;100.0
64025;BME280;50266;57.446;26.936;2023-08-01T03:56:33;98164.43;;;14.17;100.0
64025;BME280;50266;57.446;26.936;2023-08-01T03:57:33;98165.3;;;14.22;100.0
64025;BME280;50266;57.446;26.936;2023-08-01T03:58:33;98163.78;;;14.2;100.0
64025;BME280;50266;57.446;26.936;2023-08-01T03:59:33;98159.95;;;14.2;100.0
64025;BME280;50266;57.446;26.936;2023-08-01T04:00:33;98156.73;;;14.26;100.0
64025;BME280;50266;57.446;26.936;2023-08-01T04:01:33;98154.88;;;14.23;100.0
64025;BME280;50266;57.446;26.936;2023-08-01T04:02:33;98156.06;;;14.26;100.0
64025;BME280;50266;57.446;26.936;2023-08-01T04:03:33;98155.7;;;14.23;100.0
64025;BME280;50266;57.446;26.936;2023-08-01T04:04:33;98151.7;;;14.24;100.0
64025;BME280;50266;57.446;26.936;2023-08-01T04:05:33;98147.73;;;14.29;100.0
64025;BME280;50266;57.446;26.936;2023-08-01T04:06:34;98146.02;;;14.22;100.0
64025;BME280;50266;57.446;26.936;2023-08-01T04:07:34;98141.23;;;14.32;100.0
64025;BME280;50266;57.446;26.936;2023-08-01T04:08:33;98145.24;;;14.36;100.0
64025;BME280;50266;57.446;26.936;2023-08-01T04:09:33;98144.59;;;14.39;100.0
64025;BME280;50266;57.446;26.936;2023-08-01T04:10:34;98141.75;;;14.38;100.0
64025;BME280;50266;57.446;26.936;2023-08-01T04:11:33;98141.92;;;14.39;100.0
64025;BME280;50266;57.446;26.936;2023-08-01T04:12:34;98136.72;;;14.35;100.0
64025;BME280;50266;57.446;26.936;2023-08-01T04:13:33;98139.81;;;14.32;100.0
64025;BME280;50266;57.446;26.936;2023-08-01T04:14:34;98142.16;;;14.32;100.0
64025;BME280;50266;57.446;26.936;2023-08-01T04:15:34;98134.83;;;14.39;100.0
64025;BME280;50266;57.446;26.936;2023-08-01T04:16:34;98134.9;;;14.39;100.0
64025;BME280;50266;57.446;26.936;2023-08-01T04:17:34;98137.48;;;14.45;100.0
64025;BME280;50266;57.446;26.936;2023-08-01T04:18:34;98138.14;;;14.44;100.0
64025;BME280;50266;57.446;26.936;2023-08-01T04:19:34;98138.98;;;14.46;100.0
64025;BME280;50266;57.446;26.936;2023-08-01T04:20:34;98138.24;;;14.39;100.0
64025;BME280;50266;57.446;26.936;2023-08-01T04:21:34;98133.39;;;14.47;100.0
64025;BME280;50266;57.446;26.936;2023-08-01T04:22:34;98132.94;;;14.41;100.0
64025;BME280;50266;57.446;26.936;2023-08-01T04:23:34;98131.88;;;14.46;100.0
64025;BME280;50266;57.446;26.936;2023-08-01T04:24:34;98132.34;;;14.51;100.0
64025;BME280;50266;57.446;26.936;2023-08-01T04:25:34;98132.26;;;14.52;100.0
64025;BME280;50266;57.446;26.936;2023-08-01T04:26:34;98128.49;;;14.51;100.0
64025;BME280;50266;57.446;26.936;2023-08-01T04:27:34;98129.17;;;14.52;100.0
64025;BME280;50266;57.446;26.936;2023-08-01T04:28:34;98125.8;;;14.47;100.0
64025;BME280;50266;57.446;26.936;2023-08-01T04:29:34;98122.3;;;14.55;100.0
64025;BME280;50266;57.446;26.936;2023-08-01T04:30:34;98124.56;;;14.57;100.0
64025;BME280;50266;57.446;26.936;2023-08-01T04:31:34;98120.16;;;14.61;100.0
64025;BME280;50266;57.446;26.936;2023-08-01T04:32:34;98120.77;;;14.66;100.0
64025;BME280;50266;57.446;26.936;2023-08-01T04:33:34;98121.78;;;14.68;100.0
64025;BME280;50266;57.446;26.936;2023-08-01T04:34:34;98119.27;;;14.65;100.0
64025;BME280;50266;57.446;26.936;2023-08-01T04:35:34;98120.25;;;14.61;100.0
64025;BME280;50266;57.446;26.936;2023-08-01T04:36:34;98119.09;;;14.63;100.0
64025;BME280;50266;57.446;26.936;2023-08-01T04:37:35;98117.92;;;14.65;100.0
64025;BME280;50266;57.446;26.936;2023-08-01T04:38:34;98114.92;;;14.66;100.0
64025;BME280;50266;57.446;26.936;2023-08-01T04:39:34;98114.27;;;14.7;100.0
64025;BME280;50266;57.446;26.936;2023-08-01T04:40:34;98110.27;;;14.71;100.0
64025;BME280;50266;57.446;26.936;2023-08-01T04:41:34;98111.38;;;14.75;100.0
64025;BME280;50266;57.446;26.936;2023-08-01T04:42:34;98111.95;;;14.74;100.0
64025;BME280;50266;57.446;26.936;2023-08-01T04:43:34;98108.26;;;14.7;100.0
64025;BME280;50266;57.446;26.936;2023-08-01T04:44:34;98106.51;;;14.72;100.0
64025;BME280;50266;57.446;26.936;2023-08-01T04:45:34;98105.86;;;14.75;100.0
64025;BME280;50266;57.446;26.936;2023-08-01T04:46:34;98102.58;;;14.78;100.0
64025;BME280;50266;57.446;26.936;2023-08-01T04:47:34;98103.02;;;14.83;100.0
64025;BME280;50266;57.446;26.936;2023-08-01T04:48:34;98105.84;;;14.78;100.0
64025;BME280;50266;57.446;26.936;2023-08-01T04:49:34;98105.71;;;14.88;100.0
64025;BME280;50266;57.446;26.936;2023-08-01T04:50:34;98106.55;;;14.89;100.0
64025;BME280;50266;57.446;26.936;2023-08-01T04:51:34;98105.06;;;14.93;100.0
64025;BME280;50266;57.446;26.936;2023-08-01T04:52:34;98101.54;;;14.99;100.0
64025;BME280;50266;57.446;26.936;2023-08-01T04:53:34;98100.95;;;14.99;100.0
64025;BME280;50266;57.446;26.936;2023-08-01T04:54:34;98102.22;;;14.95;100.0
64025;BME280;50266;57.446;26.936;2023-08-01T04:55:34;98101.31;;;15.05;100.0
64025;BME280;50266;57.446;26.936;2023-08-01T04:56:34;98098.78;;;14.99;100.0
64025;BME280;50266;57.446;26.936;2023-08-01T04:57:34;98095.86;;;14.99;100.0
64025;BME280;50266;57.446;26.936;2023-08-01T04:58:34;98095.96;;;15.07;100.0
64025;BME280;50266;57.446;26.936;2023-08-01T04:59:34;98089.62;;;15.12;100.0
64025;BME280;50266;57.446;26.936;2023-08-01T05:00:34;98091.05;;;15.16;100.0
64025;BME280;50266;57.446;26.936;2023-08-01T05:01:34;98086.45;;;15.14;100.0
64025;BME280;50266;57.446;26.936;2023-08-01T05:02:34;98088.29;;;15.15;100.0
64025;BME280;50266;57.446;26.936;2023-08-01T05:03:34;98086.19;;;15.23;100.0
64025;BME280;50266;57.446;26.936;2023-08-01T05:04:34;98086.7;;;15.32;100.0
64025;BME280;50266;57.446;26.936;2023-08-01T05:05:34;98085.19;;;15.39;100.0
64025;BME280;50266;57.446;26.936;2023-08-01T05:06:34;98084.6;;;15.42;100.0
64025;BME280;50266;57.446;26.936;2023-08-01T05:07:34;98081.05;;;15.57;100.0
64025;BME280;50266;57.446;26.936;2023-08-01T05:08:34;98082.27;;;15.53;100.0
64025;BME280;50266;57.446;26.936;2023-08-01T05:09:35;98076.92;;;15.54;100.0
64025;BME280;50266;57.446;26.936;2023-08-01T05:10:34;98070.05;;;15.5;100.0
64025;BME280;50266;57.446;26.936;2023-08-01T05:11:34;98070.81;;;15.53;100.0
64025;BME280;50266;57.446;26.936;2023-08-01T05:12:34;98067.58;;;15.58;100.0
64025;BME280;50266;57.446;26.936;2023-08-01T05:13:34;98066.62;;;15.59;100.0
64025;BME280;50266;57.446;26.936;2023-08-01T05:14:34;98067.12;;;15.53;100.0